Time;durP1;ratioP1;P1;durP2;ratioP2;P2;SDS_P1;SDS_P2;PMS_P1;PMS_P2;Temp;Humidity;BMP_temperature;BMP_pressure;BME280_temperature;BME280_humidity;BME280_pressure;Samples;Min_cycle;Max_cycle;Signal;HPM_P1;HPM_P2
2024/04/05 00:00:54;;;;;;;2.25;2.03;;;;;;;12.38;84.10;98780.91;5096242;28;20512;-45
2024/04/05 00:03:19;;;;;;;1.83;1.73;;;;;;;12.41;84.47;98786.00;5101510;27;20046;-46
2024/04/05 00:05:46;;;;;;;2.17;2.05;;;;;;;12.42;84.30;98782.50;5104058;27;20062;-46
2024/04/05 00:08:12;;;;;;;2.25;2.15;;;;;;;12.47;83.81;98775.44;5108117;28;20070;-45
2024/04/05 00:10:38;;;;;;;2.05;1.95;;;;;;;12.52;83.09;98785.66;5107367;28;20042;-45
2024/04/05 00:13:04;;;;;;;1.92;1.83;;;;;;;12.46;83.48;98784.09;5108031;28;20048;-45
2024/04/05 00:15:30;;;;;;;2.53;2.42;;;;;;;12.50;83.60;98775.31;5113591;28;20050;-44
2024/04/05 00:17:57;;;;;;;2.67;2.33;;;;;;;12.53;83.48;98783.03;5107974;28;20051;-45
2024/04/05 00:20:23;;;;;;;2.10;1.90;;;;;;;12.56;83.71;98784.66;5108480;28;20051;-45
2024/04/05 00:22:49;;;;;;;1.88;1.77;;;;;;;12.59;83.73;98775.06;5114193;28;20042;-44
2024/04/05 00:25:17;;;;;;;2.85;2.65;;;;;;;12.57;83.91;98771.63;5109924;28;20062;-44
2024/04/05 00:27:44;;;;;;;1.90;1.80;;;;;;;12.58;82.99;98768.16;5109796;28;20043;-44
2024/04/05 00:30:10;;;;;;;2.20;2.10;;;;;;;12.60;83.14;98740.38;5108075;28;20050;-46
2024/04/05 00:32:36;;;;;;;3.63;3.10;;;;;;;12.58;83.81;98737.00;5114573;28;20073;-44
2024/04/05 00:35:03;;;;;;;2.88;2.67;;;;;;;12.56;84.05;98728.38;5109204;28;20054;-46
2024/04/05 00:37:29;;;;;;;1.85;1.75;;;;;;;12.63;83.66;98728.19;5111188;28;20041;-45
2024/04/05 00:39:55;;;;;;;2.65;2.05;;;;;;;12.64;82.73;98735.09;5103632;28;20096;-44
2024/04/05 00:42:21;;;;;;;2.33;2.22;;;;;;;12.67;82.80;98719.41;5108050;28;20067;-44
2024/04/05 00:44:48;;;;;;;1.17;0.65;;;;;;;12.63;82.88;98717.81;5110348;27;20784;-44
2024/04/05 00:47:14;;;;;;;4.20;2.33;;;;;;;12.64;82.74;98693.53;5112332;27;20043;-44
2024/04/05 00:49:40;;;;;;;2.35;2.25;;;;;;;12.63;83.05;98691.84;5111775;27;20047;-44
2024/04/05 00:52:07;;;;;;;2.28;2.08;;;;;;;12.67;83.15;98693.44;5111700;27;20050;-45
2024/04/05 00:54:35;;;;;;;2.03;1.73;;;;;;;12.67;83.04;98688.25;5121831;27;20047;-47
2024/04/05 00:57:01;;;;;;;2.47;1.88;;;;;;;12.71;82.51;98679.44;5105092;27;20046;-45
2024/04/05 00:59:27;;;;;;;3.42;2.75;;;;;;;12.55;82.62;98687.75;5114602;27;20314;-45
2024/04/05 01:01:53;;;;;;;2.83;1.80;;;;;;;12.64;82.26;98688.34;5103687;27;20121;-46
2024/04/05 01:04:19;;;;;;;2.60;1.83;;;;;;;12.67;81.99;98688.25;5131527;27;20051;-46
2024/04/05 01:06:44;;;;;;;3.53;2.55;;;;;;;12.64;80.86;98688.34;5114354;27;20100;-45
2024/04/05 01:09:11;;;;;;;3.97;2.03;;;;;;;12.67;82.18;98688.25;5111579;27;20045;-47
2024/04/05 01:11:37;;;;;;;3.90;2.78;;;;;;;12.63;81.87;98671.88;5092702;27;20127;-46
2024/04/05 01:14:02;;;;;;;3.03;2.20;;;;;;;12.63;82.06;98678.84;5117974;27;20043;-44
2024/04/05 01:16:28;;;;;;;2.60;2.03;;;;;;;12.64;81.97;98668.41;5105452;27;20039;-47
2024/04/05 01:18:56;;;;;;;3.75;2.08;;;;;;;12.63;82.76;98665.88;5114180;27;20051;-44
2024/04/05 01:21:23;;;;;;;11.18;2.25;;;;;;;12.65;82.28;98658.84;5112399;27;20084;-45
2024/04/05 01:23:49;;;;;;;4.18;2.22;;;;;;;12.60;82.35;98652.06;5108741;27;20043;-46
2024/04/05 01:26:15;;;;;;;3.47;2.08;;;;;;;12.59;81.96;98642.59;5106227;27;20089;-44
2024/04/05 01:28:41;;;;;;;2.97;2.00;;;;;;;12.54;81.91;98641.91;5090286;27;20039;-44
2024/04/05 01:31:06;;;;;;;7.13;3.22;;;;;;;12.55;82.00;98638.41;5109802;27;20051;-45
2024/04/05 01:33:32;;;;;;;5.80;2.85;;;;;;;12.50;81.90;98635.09;5110004;27;20039;-46
2024/04/05 01:35:59;;;;;;;6.18;2.42;;;;;;;12.57;82.81;98636.56;5104921;27;20385;-50
2024/04/05 01:38:25;;;;;;;6.90;2.78;;;;;;;12.52;82.75;98628.09;5109915;27;20055;-46
2024/04/05 01:40:50;;;;;;;4.03;2.63;;;;;;;12.57;81.94;98626.19;5082961;28;20050;-45
2024/04/05 01:43:16;;;;;;;5.85;3.13;;;;;;;12.49;82.00;98617.81;5090167;28;20366;-46
2024/04/05 01:45:42;;;;;;;3.90;2.85;;;;;;;12.50;82.01;98635.09;5091740;28;20063;-47
2024/04/05 01:48:07;;;;;;;7.60;3.42;;;;;;;12.49;81.74;98620.41;5095757;28;20075;-44
2024/04/05 01:50:33;;;;;;;4.97;3.28;;;;;;;12.58;82.40;98627.06;5105978;27;20052;-46
2024/04/05 01:52:59;;;;;;;7.45;2.45;;;;;;;12.62;81.15;98625.19;5110268;27;20108;-48
2024/04/05 01:55:24;;;;;;;7.20;2.83;;;;;;;12.65;81.78;98638.94;5103670;27;20112;-52
2024/04/05 01:57:50;;;;;;;10.63;2.90;;;;;;;12.57;81.53;98636.56;5112354;27;20564;-49
2024/04/05 02:00:16;;;;;;;6.25;2.60;;;;;;;12.64;81.97;98628.59;5107263;27;20047;-49
2024/04/05 02:02:41;;;;;;;9.57;3.30;;;;;;;12.68;80.50;98630.19;5104823;27;20066;-48
2024/04/05 02:05:07;;;;;;;5.30;3.22;;;;;;;12.68;80.85;98614.59;5105116;27;20079;-46
2024/04/05 02:07:33;;;;;;;12.38;4.00;;;;;;;12.59;81.45;98595.84;5104051;27;20050;-47
2024/04/05 02:09:59;;;;;;;11.77;4.38;;;;;;;12.66;82.00;98600.81;5081106;28;20055;-46
2024/04/05 02:12:27;;;;;;;5.20;3.03;;;;;;;12.60;81.08;98594.91;5082286;28;20096;-46
2024/04/05 02:14:53;;;;;;;8.88;2.92;;;;;;;12.65;80.77;98591.31;5085485;28;20504;-47
2024/04/05 02:17:19;;;;;;;4.43;2.63;;;;;;;12.58;82.24;98595.88;5099903;28;20056;-44
2024/04/05 02:19:45;;;;;;;11.57;3.40;;;;;;;12.58;82.07;98586.34;5107446;27;20074;-45
2024/04/05 02:22:11;;;;;;;4.93;2.53;;;;;;;12.52;81.52;98576.16;5109027;27;20616;-44
2024/04/05 02:24:37;;;;;;;9.63;2.67;;;;;;;12.56;81.98;98595.94;5095458;27;20119;-45
2024/04/05 02:27:03;;;;;;;8.65;3.03;;;;;;;12.52;81.37;98591.75;5090549;27;20126;-45
2024/04/05 02:29:29;;;;;;;4.55;2.60;;;;;;;12.56;80.95;98590.75;5117848;27;20051;-46
2024/04/05 02:31:54;;;;;;;7.70;2.55;;;;;;;12.55;82.00;98596.84;5109854;27;20077;-47
2024/04/05 02:34:20;;;;;;;5.68;3.28;;;;;;;12.47;82.20;98588.47;5106661;27;20495;-47
2024/04/05 02:36:49;;;;;;;3.88;2.22;;;;;;;12.49;81.43;98591.00;5107925;27;20043;-45
2024/04/05 02:39:15;;;;;;;7.32;2.63;;;;;;;12.44;81.85;98593.75;5105812;28;20049;-45
2024/04/05 02:41:40;;;;;;;2.63;2.42;;;;;;;12.35;82.62;98579.34;5107886;27;20138;-43
2024/04/05 02:44:06;;;;;;;8.43;3.13;;;;;;;12.45;82.33;98579.88;5109685;27;20051;-44
2024/04/05 02:46:32;;;;;;;7.57;3.90;;;;;;;12.45;81.45;98583.31;5108181;27;20074;-46
2024/04/05 02:48:57;;;;;;;11.10;3.10;;;;;;;12.45;81.08;98564.28;5097231;28;20123;-44
2024/04/05 02:51:23;;;;;;;4.60;2.85;;;;;;;12.43;82.14;98566.09;5101548;27;20112;-45
2024/04/05 02:53:48;;;;;;;5.38;1.75;;;;;;;12.32;81.97;98569.91;5114101;27;20786;-45
2024/04/05 02:56:16;;;;;;;4.78;3.00;;;;;;;12.36;81.71;98569.81;5108120;27;20052;-45
2024/04/05 02:58:42;;;;;;;9.05;3.78;;;;;;;12.39;81.43;98560.16;5091370;27;20494;-46
2024/04/05 03:01:08;;;;;;;6.32;2.67;;;;;;;12.36;81.60;98554.22;5088990;27;20049;-44
2024/04/05 03:03:33;;;;;;;5.72;3.40;;;;;;;12.37;82.52;98548.13;5104032;27;20064;-47
2024/04/05 03:05:59;;;;;;;4.28;2.70;;;;;;;12.32;82.14;98556.94;5111469;27;20050;-45
2024/04/05 03:08:25;;;;;;;8.13;3.00;;;;;;;12.34;82.70;98557.69;5111641;27;20055;-45
2024/04/05 03:10:50;;;;;;;5.63;2.88;;;;;;;12.33;82.72;98544.81;5105820;27;20071;-46
2024/04/05 03:13:16;;;;;;;8.30;3.75;;;;;;;12.27;82.87;98537.22;5108585;27;20035;-44
2024/04/05 03:15:42;;;;;;;5.60;3.75;;;;;;;12.30;83.04;98535.34;5110747;27;20059;-45
2024/04/05 03:18:07;;;;;;;7.22;3.22;;;;;;;12.28;82.51;98531.97;5109410;27;20043;-45
2024/04/05 03:20:33;;;;;;;7.88;3.55;;;;;;;12.28;82.74;98528.53;5098024;27;20075;-46
2024/04/05 03:22:58;;;;;;;9.38;3.42;;;;;;;12.17;82.64;98521.09;5105667;27;20059;-45
2024/04/05 03:25:24;;;;;;;3.65;2.65;;;;;;;12.13;83.51;98509.13;5108988;27;20396;-45
2024/04/05 03:27:50;;;;;;;6.50;2.47;;;;;;;12.21;83.46;98507.13;5105411;28;20048;-46
2024/04/05 03:30:16;;;;;;;6.00;3.40;;;;;;;12.19;82.75;98498.53;5115067;27;20043;-44
2024/04/05 03:32:42;;;;;;;6.78;3.03;;;;;;;12.20;82.36;98488.09;5092052;27;20066;-45
2024/04/05 03:35:07;;;;;;;3.28;2.72;;;;;;;12.13;83.92;98485.78;5114006;27;20059;-46
2024/04/05 03:37:33;;;;;;;5.25;2.70;;;;;;;12.21;82.83;98475.97;5110933;27;20043;-47
2024/04/05 03:40:00;;;;;;;6.85;3.22;;;;;;;12.18;83.32;98476.94;5105099;28;20043;-46
2024/04/05 03:42:26;;;;;;;8.30;3.13;;;;;;;12.14;83.08;98472.75;5105840;28;20054;-45
2024/04/05 03:44:52;;;;;;;6.47;2.63;;;;;;;12.14;82.50;98487.47;5088948;28;20400;-46
2024/04/05 03:47:17;;;;;;;3.58;2.63;;;;;;;12.08;83.13;98494.56;5106578;28;20051;-44
2024/04/05 03:49:43;;;;;;;7.22;2.63;;;;;;;12.17;82.80;98487.38;5086201;28;20061;-45
2024/04/05 03:52:09;;;;;;;5.97;2.45;;;;;;;12.12;83.13;98484.09;5110401;28;20111;-45
2024/04/05 03:54:34;;;;;;;5.20;3.50;;;;;;;12.10;82.98;98486.72;5106499;28;20074;-48
2024/04/05 03:57:00;;;;;;;5.20;2.00;;;;;;;12.10;83.50;98475.50;5100602;28;20044;-48
2024/04/05 03:59:26;;;;;;;2.13;1.85;;;;;;;12.04;83.34;98468.72;5109122;28;20146;-45
2024/04/05 04:01:53;;;;;;;7.97;2.72;;;;;;;12.10;82.94;98462.53;5096374;27;20051;-47
2024/04/05 04:04:18;;;;;;;7.32;2.88;;;;;;;12.06;83.36;98456.59;5089649;27;20051;-49
2024/04/05 04:06:44;;;;;;;4.40;3.25;;;;;;;12.03;83.23;98443.69;5089407;28;20069;-50
2024/04/05 04:09:11;;;;;;;4.32;3.03;;;;;;;12.03;83.47;98448.88;5110075;28;20058;-47
2024/04/05 04:11:37;;;;;;;6.45;2.92;;;;;;;12.04;82.59;98451.44;5104632;27;20446;-48
2024/04/05 04:14:03;;;;;;;2.78;2.38;;;;;;;11.95;84.24;98449.13;5109856;28;20408;-46
2024/04/05 04:16:30;;;;;;;5.45;3.00;;;;;;;11.98;82.99;98440.38;5103284;28;20046;-47
2024/04/05 04:18:55;;;;;;;5.00;2.90;;;;;;;11.94;83.28;98437.06;5104337;27;20054;-47
2024/04/05 04:21:24;;;;;;;2.83;2.55;;;;;;;11.91;83.58;98434.56;5105795;27;20055;-46
2024/04/05 04:23:51;;;;;;;4.05;2.38;;;;;;;12.01;83.45;98420.38;5111793;27;20047;-45
2024/04/05 04:26:17;;;;;;;2.92;2.22;;;;;;;11.94;84.14;98418.91;5095498;27;20503;-49
2024/04/05 04:28:43;;;;;;;6.15;2.97;;;;;;;11.93;83.71;98414.63;5108642;27;20054;-47
2024/04/05 04:31:21;;;;;;;4.10;3.10;;;;;;;11.92;83.60;98400.78;5109725;27;20691;-46
2024/04/05 04:33:48;;;;;;;4.90;2.90;;;;;;;11.96;83.42;98401.56;5103222;27;20140;-47
2024/04/05 04:36:14;;;;;;;6.28;2.85;;;;;;;11.92;84.34;98390.41;5101854;27;20057;-50
2024/04/05 04:38:39;;;;;;;10.32;3.50;;;;;;;11.91;83.09;98400.84;5103070;27;20051;-48
2024/04/05 04:41:05;;;;;;;4.80;2.72;;;;;;;11.92;83.40;98389.59;5103743;27;20776;-48
2024/04/05 04:43:31;;;;;;;4.93;2.92;;;;;;;11.89;83.80;98395.72;5103898;27;20336;-45
2024/04/05 04:45:59;;;;;;;2.80;2.53;;;;;;;11.90;84.36;98388.78;5099632;27;20051;-47
2024/04/05 04:48:26;;;;;;;7.72;2.70;;;;;;;11.81;84.67;98376.97;5104332;27;20047;-45
2024/04/05 04:50:53;;;;;;;6.07;3.05;;;;;;;11.85;84.27;98369.94;5085892;27;20050;-47
2024/04/05 04:53:19;;;;;;;4.10;2.75;;;;;;;11.80;84.26;98370.97;5103619;27;20051;-47
2024/04/05 04:55:45;;;;;;;5.00;2.50;;;;;;;11.78;84.47;98370.16;5088960;27;20051;-47
2024/04/05 04:58:11;;;;;;;4.68;3.22;;;;;;;11.77;84.61;98371.06;5079972;27;20048;-49
2024/04/05 05:00:37;;;;;;;6.18;3.45;;;;;;;11.79;84.61;98364.06;5102426;27;20043;-47
2024/04/05 05:03:05;;;;;;;5.63;3.20;;;;;;;11.76;85.49;98352.94;5098678;27;20047;-44
2024/04/05 05:05:30;;;;;;;7.38;2.80;;;;;;;11.68;85.52;98356.66;5098354;27;20054;-47
2024/04/05 05:07:56;;;;;;;4.90;4.47;;;;;;;11.66;85.84;98353.25;5105250;27;20074;-46
2024/04/05 05:10:22;;;;;;;3.38;2.85;;;;;;;11.73;85.31;98355.66;5114039;27;20055;-46
2024/04/05 05:12:48;;;;;;;7.47;2.75;;;;;;;11.80;85.19;98349.34;5104026;27;20047;-49
2024/04/05 05:15:14;;;;;;;4.35;2.78;;;;;;;11.74;85.39;98354.75;5102715;27;20046;-47
2024/04/05 05:17:39;;;;;;;4.57;1.42;;;;;;;11.72;85.17;98349.59;5103986;27;21183;-44
2024/04/05 05:20:07;;;;;;;4.40;2.67;;;;;;;11.76;84.60;98343.41;5108167;27;20107;-47
2024/04/05 05:22:32;;;;;;;3.28;2.97;;;;;;;11.78;84.21;98336.44;5104487;27;20050;-45
2024/04/05 05:24:58;;;;;;;5.07;3.05;;;;;;;11.74;84.98;98336.59;5102128;27;20051;-50
2024/04/05 05:27:24;;;;;;;8.00;4.70;;;;;;;11.72;85.32;98341.00;5102016;27;20407;-45
2024/04/05 05:29:50;;;;;;;3.58;3.13;;;;;;;11.75;85.41;98336.53;5100713;27;20061;-46
2024/04/05 05:32:16;;;;;;;6.90;3.20;;;;;;;11.80;84.46;98350.22;5103518;27;20071;-46
2024/04/05 05:34:41;;;;;;;4.00;2.63;;;;;;;11.81;85.27;98341.50;5100305;27;20086;-45
2024/04/05 05:37:07;;;;;;;6.35;1.75;;;;;;;11.80;84.13;98329.47;5102001;27;20438;-50
2024/04/05 05:39:33;;;;;;;3.38;3.03;;;;;;;11.85;84.71;98328.44;5101536;27;20039;-46
2024/04/05 05:41:59;;;;;;;8.00;3.72;;;;;;;11.89;83.77;98327.44;5106054;27;20411;-47
2024/04/05 05:44:25;;;;;;;5.00;2.90;;;;;;;11.77;83.85;98319.19;5104637;27;20051;-46
2024/04/05 05:46:51;;;;;;;7.22;2.67;;;;;;;11.78;84.00;98320.00;5092881;27;20058;-44
2024/04/05 05:49:17;;;;;;;8.00;3.53;;;;;;;11.90;84.33;98323.94;5095373;28;20397;-46
2024/04/05 05:51:43;;;;;;;3.58;3.25;;;;;;;11.81;83.72;98325.94;5102289;27;20104;-46
2024/04/05 05:54:08;;;;;;;6.95;3.88;;;;;;;11.89;83.38;98324.84;5096876;27;20641;-44
2024/04/05 05:56:44;;;;;;;6.90;3.15;;;;;;;11.80;84.30;98313.03;5098579;27;20127;-44
2024/04/05 05:59:09;;;;;;;4.22;3.15;;;;;;;11.90;84.78;98329.13;5098928;27;20056;-45
2024/04/05 06:01:35;;;;;;;5.82;3.20;;;;;;;11.82;85.08;98322.44;5099823;27;20065;-45
2024/04/05 06:04:03;;;;;;;4.93;2.88;;;;;;;11.86;85.11;98322.34;5096060;27;20059;-47
2024/04/05 06:06:29;;;;;;;3.38;2.28;;;;;;;11.91;84.93;98320.41;5097890;28;20500;-45
2024/04/05 06:08:55;;;;;;;6.60;3.40;;;;;;;11.96;84.22;98331.50;5096495;28;20441;-46
2024/04/05 06:11:22;;;;;;;4.57;2.90;;;;;;;11.92;83.55;98328.16;5080987;28;20056;-46
2024/04/05 06:13:47;;;;;;;7.63;3.30;;;;;;;11.94;83.30;98326.38;5102133;27;20036;-45
2024/04/05 06:16:13;;;;;;;4.88;3.28;;;;;;;12.01;83.47;98341.69;5104605;27;20130;-48
2024/04/05 06:18:43;;;;;;;5.82;3.00;;;;;;;12.01;84.56;98337.34;5101540;28;20131;-47
2024/04/05 06:21:08;;;;;;;3.20;2.90;;;;;;;12.01;84.25;98326.13;5100293;28;20047;-46
2024/04/05 06:23:34;;;;;;;5.28;3.00;;;;;;;12.02;83.65;98313.09;5109283;27;20054;-46
2024/04/05 06:26:00;;;;;;;4.57;2.55;;;;;;;12.04;83.87;98321.69;5106442;27;20046;-44
2024/04/05 06:28:26;;;;;;;3.28;2.55;;;;;;;12.08;84.20;98328.50;5088839;28;20054;-45
2024/04/05 06:30:52;;;;;;;4.30;3.28;;;;;;;12.14;83.50;98326.56;5105143;28;20043;-45
2024/04/05 06:33:18;;;;;;;4.13;2.90;;;;;;;12.19;82.93;98324.63;5085389;27;20071;-48
2024/04/05 06:35:44;;;;;;;9.20;3.90;;;;;;;12.19;82.83;98329.81;5094977;27;20056;-46
2024/04/05 06:38:10;;;;;;;3.47;2.97;;;;;;;12.12;83.31;98333.56;5084257;27;20043;-45
2024/04/05 06:40:36;;;;;;;7.05;3.15;;;;;;;12.22;83.48;98340.09;5094708;27;20054;-46
2024/04/05 06:43:03;;;;;;;3.42;2.90;;;;;;;12.23;82.52;98347.00;5087678;28;20043;-48
2024/04/05 06:45:29;;;;;;;7.82;3.05;;;;;;;12.14;83.34;98340.38;5088567;28;20055;-45
2024/04/05 06:47:56;;;;;;;4.82;2.97;;;;;;;12.15;83.04;98333.44;5098927;27;20043;-45
2024/04/05 06:50:25;;;;;;;4.75;4.35;;;;;;;12.13;83.29;98337.84;5090621;27;20481;-46
2024/04/05 06:52:56;;;;;;;9.13;3.75;;;;;;;12.21;83.32;98328.03;5105898;27;20054;-46
2024/04/05 06:55:22;;;;;;;4.65;3.08;;;;;;;12.23;82.89;98325.38;5105060;27;20100;-45
2024/04/05 06:57:47;;;;;;;3.42;3.03;;;;;;;12.29;83.54;98328.59;5106753;27;20047;-49
2024/04/05 07:00:15;;;;;;;5.35;3.63;;;;;;;12.35;83.47;98335.28;5101344;28;20039;-47
2024/04/05 07:02:41;;;;;;;3.55;3.25;;;;;;;12.32;83.57;98346.66;5106823;27;20047;-51
2024/04/05 07:05:07;;;;;;;9.63;3.65;;;;;;;12.37;83.16;98343.88;5099580;27;20057;-51
2024/04/05 07:07:32;;;;;;;5.70;2.95;;;;;;;12.43;83.19;98345.41;5100683;28;20039;-48
2024/04/05 07:09:58;;;;;;;4.28;2.55;;;;;;;12.42;83.30;98338.50;5085950;28;20135;-49
2024/04/05 07:12:24;;;;;;;6.25;3.25;;;;;;;12.45;82.42;98341.84;5082837;28;20079;-46
2024/04/05 07:14:49;;;;;;;6.25;3.50;;;;;;;12.47;83.35;98344.38;5092487;28;20051;-47
2024/04/05 07:17:15;;;;;;;2.90;2.47;;;;;;;12.42;82.99;98341.94;5077338;28;20125;-48
2024/04/05 07:19:41;;;;;;;3.70;3.40;;;;;;;12.43;83.17;98345.41;5098183;27;20043;-47
2024/04/05 07:22:09;;;;;;;3.10;2.25;;;;;;;12.31;81.54;98339.78;5099672;27;20046;-45
2024/04/05 07:24:35;;;;;;;4.38;2.95;;;;;;;12.36;81.99;98346.53;5090967;27;20069;-46
2024/04/05 07:27:01;;;;;;;3.92;2.45;;;;;;;12.36;82.80;98346.53;5070308;28;20051;-47
2024/04/05 07:29:27;;;;;;;4.78;2.83;;;;;;;12.42;82.28;98346.28;5076284;27;21566;-47
2024/04/05 07:31:53;;;;;;;6.40;3.15;;;;;;;12.47;81.84;98349.56;5096271;28;20055;-47
2024/04/05 07:34:19;;;;;;;5.47;3.35;;;;;;;12.60;81.43;98355.97;5095596;28;20080;-45
2024/04/05 07:36:45;;;;;;;3.72;2.28;;;;;;;12.62;81.19;98362.84;5095423;28;20171;-46
2024/04/05 07:39:12;;;;;;;3.95;2.88;;;;;;;12.61;81.00;98367.22;5100613;28;20055;-46
2024/04/05 07:41:37;;;;;;;4.95;2.05;;;;;;;12.60;81.22;98355.97;5098734;28;20051;-48
2024/04/05 07:44:03;;;;;;;2.67;2.47;;;;;;;12.60;80.26;98360.34;5080667;28;20051;-45
2024/04/05 07:46:29;;;;;;;4.88;2.67;;;;;;;12.70;81.10;98371.22;5097739;28;20051;-46
2024/04/05 07:48:55;;;;;;;3.33;0.77;;;;;;;13.15;80.60;98355.63;5085355;28;20978;-47
2024/04/05 07:51:21;;;;;;;3.30;2.25;;;;;;;14.09;79.59;98379.44;5084350;28;20047;-44
2024/04/05 07:53:47;;;;;;;2.97;1.98;;;;;;;14.58;76.38;98375.53;5098549;27;20047;-47
2024/04/05 07:56:13;;;;;;;7.35;2.42;;;;;;;14.79;76.15;98380.69;5101015;27;20415;-47
2024/04/05 07:58:40;;;;;;;3.60;2.33;;;;;;;14.94;75.13;98386.97;5082628;27;20556;-48
2024/04/05 08:01:07;;;;;;;4.45;3.13;;;;;;;15.47;74.77;98391.41;5096192;27;20487;-45
2024/04/05 08:03:34;;;;;;;5.38;2.25;;;;;;;15.71;71.37;98376.28;5100687;27;20055;-46
2024/04/05 08:06:01;;;;;;;6.18;2.95;;;;;;;16.04;71.77;98382.47;5096693;27;20822;-45
2024/04/05 08:08:27;;;;;;;3.92;2.80;;;;;;;16.44;70.24;98387.34;5100242;28;20054;-46
2024/04/05 08:11:01;;;;;;;3.80;3.35;;;;;;;16.90;69.69;98394.47;5100083;27;20069;-46
2024/04/05 08:13:28;;;;;;;3.40;2.65;;;;;;;17.43;67.85;98402.00;5097959;27;20044;-45
2024/04/05 08:15:54;;;;;;;3.58;3.28;;;;;;;17.70;66.23;98401.31;5080538;27;20412;-46
2024/04/05 08:18:20;;;;;;;3.92;2.38;;;;;;;17.85;65.36;98403.97;5097578;27;20047;-46
2024/04/05 08:20:45;;;;;;;3.30;2.47;;;;;;;18.20;64.49;98414.13;5100615;27;20047;-47
2024/04/05 08:23:11;;;;;;;6.72;3.25;;;;;;;18.40;63.91;98419.13;5101431;27;20059;-47
2024/04/05 08:25:37;;;;;;;2.47;2.15;;;;;;;18.58;62.86;98415.31;5099701;27;20047;-46
2024/04/05 08:28:02;;;;;;;5.70;2.17;;;;;;;18.55;61.46;98422.56;5095938;27;20054;-45
2024/04/05 08:30:28;;;;;;;7.05;2.90;;;;;;;18.11;61.82;98430.44;5097601;27;20059;-45
2024/04/05 08:32:54;;;;;;;3.67;2.40;;;;;;;17.80;62.26;98421.75;5101432;27;20061;-45
2024/04/05 08:35:20;;;;;;;6.22;2.95;;;;;;;17.23;61.49;98424.09;5097738;27;21157;-46
2024/04/05 08:37:45;;;;;;;4.13;3.05;;;;;;;16.85;62.91;98430.47;5099469;27;20076;-45
2024/04/05 08:40:12;;;;;;;4.70;2.00;;;;;;;16.36;64.07;98433.94;5095033;27;24144;-46
2024/04/05 08:42:39;;;;;;;2.67;2.22;;;;;;;16.17;64.48;98429.69;5100669;27;20047;-46
2024/04/05 08:45:06;;;;;;;5.60;2.80;;;;;;;15.94;64.84;98424.69;5080648;27;20043;-46
2024/04/05 08:47:32;;;;;;;9.20;2.97;;;;;;;16.25;65.02;98431.91;5097242;27;20054;-45
2024/04/05 08:49:59;;;;;;;2.85;2.65;;;;;;;16.81;63.71;98432.41;5098190;27;20065;-46
2024/04/05 08:52:25;;;;;;;4.88;2.40;;;;;;;17.33;62.65;98435.69;5077503;27;20058;-46
2024/04/05 08:54:54;;;;;;;4.40;3.00;;;;;;;17.84;61.32;98450.25;5105906;27;20047;-46
2024/04/05 08:57:27;;;;;;;4.97;0.82;;;;;;;18.33;60.45;98445.69;5118079;27;20479;-46
2024/04/05 08:59:53;;;;;;;6.45;2.33;;;;;;;18.48;59.98;98456.19;5098609;27;20069;-46
2024/04/05 09:02:23;;;;;;;5.15;2.92;;;;;;;18.65;59.43;98452.53;5099453;27;20108;-46
2024/04/05 09:04:51;;;;;;;5.13;2.70;;;;;;;18.40;57.32;98467.13;5096588;27;20526;-47
2024/04/05 09:07:16;;;;;;;11.57;3.88;;;;;;;18.19;59.47;98451.75;5104523;27;20395;-45
2024/04/05 09:09:46;;;;;;;6.03;3.00;;;;;;;17.85;58.95;98451.97;5102666;27;20059;-45
2024/04/05 09:12:14;;;;;;;2.90;2.28;;;;;;;17.45;59.23;98460.34;5102538;27;20237;-45
2024/04/05 09:14:41;;;;;;;9.13;3.53;;;;;;;17.18;61.13;98468.81;5085392;27;20043;-46
2024/04/05 09:17:15;;;;;;;8.45;3.33;;;;;;;16.84;61.60;98473.25;5102218;27;20055;-48
2024/04/05 09:19:41;;;;;;;7.10;2.10;;;;;;;16.62;61.76;98479.59;5089071;27;20039;-45
2024/04/05 09:22:07;;;;;;;6.75;4.22;;;;;;;16.36;61.27;98481.84;5086237;27;20457;-46
2024/04/05 09:24:33;;;;;;;6.30;3.38;;;;;;;16.18;62.18;98497.53;5087795;27;20100;-47
2024/04/05 09:27:00;;;;;;;12.40;3.28;;;;;;;16.01;62.42;98487.09;5111097;27;20046;-45
2024/04/05 09:29:27;;;;;;;9.52;3.38;;;;;;;16.07;63.34;98492.00;5106256;27;20054;-45
2024/04/05 09:31:54;;;;;;;9.70;3.35;;;;;;;15.97;64.65;98501.22;5099877;28;20055;-46
2024/04/05 09:34:25;;;;;;;8.65;2.75;;;;;;;15.85;63.71;98498.28;5106783;27;20047;-50
2024/04/05 09:36:51;;;;;;;10.32;4.20;;;;;;;15.54;63.92;98499.78;5077368;27;20039;-46
2024/04/05 09:39:21;;;;;;;3.55;2.90;;;;;;;15.39;64.53;98515.25;5088800;28;20056;-49
2024/04/05 09:41:47;;;;;;;9.45;3.10;;;;;;;15.57;64.68;98510.03;5106102;28;20503;-47
2024/04/05 09:44:17;;;;;;;6.25;3.45;;;;;;;15.84;64.70;98511.41;5067016;28;20120;-47
2024/04/05 09:46:43;;;;;;;6.15;3.17;;;;;;;16.14;64.19;98509.03;5104490;28;20074;-48
2024/04/05 09:49:14;;;;;;;9.20;4.00;;;;;;;16.44;63.30;98510.16;5091610;28;20051;-45
2024/04/05 09:51:44;;;;;;;4.30;3.00;;;;;;;16.78;62.74;98515.38;5094800;28;20044;-49
2024/04/05 09:54:13;;;;;;;4.85;1.20;;;;;;;17.07;60.69;98510.41;5100916;28;20451;-46
2024/04/05 09:56:40;;;;;;;7.22;3.38;;;;;;;17.03;61.18;98512.31;5067343;28;20060;-45
2024/04/05 09:59:28;;;;;;;10.20;3.33;;;;;;;16.86;61.06;98515.84;5080332;28;20058;-46
2024/04/05 10:01:55;;;;;;;10.85;3.60;;;;;;;16.36;61.33;98523.63;5104785;28;20059;-46
2024/04/05 10:04:22;;;;;;;8.98;3.63;;;;;;;16.23;62.17;98517.34;5087036;28;20043;-45
2024/04/05 10:06:47;;;;;;;8.68;3.13;;;;;;;16.00;62.04;98528.03;5102227;28;20499;-46
2024/04/05 10:11:51;;;;;;;6.22;1.33;;;;;;;16.13;62.98;98543.94;5113267;27;20399;-45
2024/04/05 10:17:12;;;;;;;4.57;0.82;;;;;;;16.18;62.54;98547.16;5106946;27;20952;-47
2024/04/05 10:19:40;;;;;;;3.17;0.82;;;;;;;16.52;62.30;98543.75;5077686;28;20111;-47
2024/04/05 10:22:09;;;;;;;7.43;1.88;;;;;;;16.78;61.96;98552.00;5047431;28;20827;-46
2024/04/05 10:24:36;;;;;;;4.00;1.17;;;;;;;16.73;62.03;98556.63;5041066;28;20725;-47
2024/04/05 10:27:04;;;;;;;3.97;0.98;;;;;;;16.56;60.98;98561.78;5039308;28;20041;-51
2024/04/05 10:29:31;;;;;;;4.72;1.60;;;;;;;16.58;61.47;98564.31;5026098;28;20052;-49
2024/04/05 10:32:02;;;;;;;5.28;1.27;;;;;;;16.38;60.37;98558.34;5058276;28;20053;-47
2024/04/05 10:34:28;;;;;;;3.95;0.93;;;;;;;16.21;60.44;98555.75;5043571;28;20052;-52
2024/04/05 10:36:55;;;;;;;7.78;1.85;;;;;;;16.37;61.52;98556.66;5046292;28;20090;-49
2024/04/05 10:39:21;;;;;;;6.38;1.80;;;;;;;16.28;61.15;98563.19;5061491;28;20658;-47
2024/04/05 10:41:48;;;;;;;5.22;2.15;;;;;;;16.30;60.58;98570.97;5059239;28;20045;-48
2024/04/05 10:44:14;;;;;;;7.65;1.45;;;;;;;16.36;60.71;98564.59;5042339;28;20080;-49
2024/04/05 10:46:41;;;;;;;6.97;1.67;;;;;;;16.69;60.82;98556.78;5021559;28;20785;-46
2024/04/05 10:49:07;;;;;;;5.63;1.45;;;;;;;16.96;60.86;98573.72;5035496;28;20473;-48
2024/04/05 10:51:33;;;;;;;5.55;1.05;;;;;;;17.13;59.79;98554.56;5042024;28;20051;-51
2024/04/05 10:54:08;;;;;;;6.32;2.15;;;;;;;17.33;59.18;98555.25;5041986;28;20052;-46
2024/04/05 10:56:39;;;;;;;4.75;1.83;;;;;;;17.33;58.55;98563.09;5040750;28;20513;-50
2024/04/05 10:59:07;;;;;;;5.90;1.15;;;;;;;17.30;57.86;98551.00;5059090;28;20048;-47
2024/04/05 11:01:37;;;;;;;9.57;1.30;;;;;;;17.16;55.50;98549.13;5036805;28;20465;-48
2024/04/05 11:04:10;;;;;;;8.73;0.95;;;;;;;17.42;57.10;98570.41;5025474;28;20106;-46
2024/04/05 11:06:37;;;;;;;15.32;4.03;;;;;;;17.51;56.81;98560.38;5024911;28;20053;-48
2024/04/05 11:09:06;;;;;;;8.52;2.05;;;;;;;17.63;55.57;98577.19;5025296;28;20048;-47
2024/04/05 11:11:33;;;;;;;4.03;1.25;;;;;;;17.58;55.34;98553.88;5039682;28;20053;-47
2024/04/05 11:14:09;;;;;;;12.13;2.00;;;;;;;17.60;55.23;98558.09;5081898;28;20826;-47
2024/04/05 11:16:40;;;;;;;5.32;1.23;;;;;;;17.66;55.71;98556.06;5059463;28;20409;-49
2024/04/05 11:19:06;;;;;;;9.48;2.08;;;;;;;17.68;56.63;98559.44;5067657;28;20045;-47
2024/04/05 11:21:33;;;;;;;5.13;1.15;;;;;;;17.78;55.60;98562.38;5052273;28;20076;-50
2024/04/05 11:23:59;;;;;;;4.50;1.75;;;;;;;18.02;56.28;98567.13;5035985;28;20056;-48
2024/04/05 11:26:34;;;;;;;3.92;1.30;;;;;;;18.13;54.84;98566.56;5038996;28;20045;-47
2024/04/05 11:29:01;;;;;;;5.88;2.40;;;;;;;18.09;54.20;98564.13;5016531;28;20106;-47
2024/04/05 11:31:28;;;;;;;5.63;1.85;;;;;;;18.26;54.44;98575.38;5029100;28;20493;-47
2024/04/05 11:33:55;;;;;;;5.68;1.48;;;;;;;18.17;52.22;98571.53;5027853;28;20698;-49
2024/04/05 11:36:21;;;;;;;2.35;0.82;;;;;;;18.23;53.26;98568.56;5027276;28;20045;-47